Airfield :







YOU CAN JOIN US ON...

 
LOGIN :

Register | Disclaimer

   EN    FR    IT 

 









Legend :    VFR   Marginal VFR   IFR   Intensive IFR   Very Intensive IFR
Visi :
Ceiling :
>= 8 km
>= 3000ft
5 to 8 km
1000 to 3000 ft
1500m to 5 km
500 to 1000 ft
800 to 1500m
200 to 500 ft
< 800m
< 200 ft
Symbols :   Thunderstorms  Fog  Heavy snow  Heavy precipitations  Wind > 20 kt






- Airport Elevation : 180 ft
- IATA code : YZV


CYZV - Sept-Iles

CURRENT METAR :
  • 221100Z 09014G21KT 4SM -RA BR BKN008 OVC020 08/07 A2987 RMK SC7SC1 SLP118

EXPIRED METARs :
  • 221000Z 09017G24KT 15SM -RA BKN008 OVC031 08/07 A2988 RMK SC7SC1 SLP121
  • 220935Z 08014G21KT 15SM -RA BKN008 OVC033 08/07 A2988 RMK SC7SC1 SLP124
  • 220900Z 09014G20KT 15SM BKN006 OVC050 08/07 A2989 RMK SC7SC1 SLP125

TAF TAF CYZV
Valid from the 22 at 12:00 until the 23 at 12:00 UTC


221140Z 2212/2312 09015G25KT 4SM -RA BR BKN006 OVC020
TEMPO 2212/2213 P6SM -RA SCT006 OVC020
FM221300 09018G28KT 3SM -RA BR OVC006
TEMPO 2213/2218 11/2SM RA BR OVC003
FM221800 09020G30KT 2SM -RA BR OVC004
FM230000 09012G22KT 1SM -DZ BR OVC003
FM230700 09012KT 2SM -RA BR OVC004 RMK NXT FCST BY 221800Z
CZUL FIR / North America



MET'MAP, your aeronautical weather chart ! - Copyright ORBIFLY December 2007 - Disclaimer

ORBIFLY MET'MAP TEAM :

Programming & Development : Alexandra Zaïnal
Concept & original design : Baudouin d'Aumeries
Assistance for programming : Marc-Olivier Méhu
Technical & hardware support : Manuel Goepfert

Contact : metmap@orbifly.com




SOURCES & CREDITS :

   NOAA